createdAt,value
2019-04-16T00:02:57.320Z,18.03
2019-04-16T00:07:23.691Z,23.13
2019-04-16T00:11:42.879Z,17.27
2019-04-16T00:15:51.434Z,15.77
2019-04-16T00:19:59.891Z,18.30
2019-04-16T00:24:19.507Z,17.53
2019-04-16T00:28:30.540Z,17.23
2019-04-16T00:32:39.983Z,20.53
2019-04-16T00:36:49.322Z,24.10
2019-04-16T00:41:00.727Z,18.33
2019-04-16T00:45:08.630Z,20.97
2019-04-16T00:49:17.132Z,22.93
2019-04-16T00:53:25.698Z,19.57
2019-04-16T00:57:34.228Z,20.83
2019-04-16T01:01:42.768Z,18.10
2019-04-16T01:05:51.228Z,14.93
2019-04-16T01:09:59.720Z,21.70
2019-04-16T01:14:08.205Z,23.20
2019-04-16T01:18:16.761Z,20.27
2019-04-16T01:22:25.242Z,19.63
2019-04-16T01:26:33.724Z,18.90
2019-04-16T01:31:19.322Z,20.10
2019-04-16T01:35:29.448Z,22.10
2019-04-16T01:39:39.819Z,21.35
2019-04-16T01:43:48.314Z,23.43
2019-04-16T01:47:56.781Z,22.07
2019-04-16T01:52:05.514Z,23.53
2019-04-16T01:56:14.055Z,24.47
2019-04-16T02:00:22.567Z,23.60
2019-04-16T02:04:31.032Z,23.17
2019-04-16T02:08:39.477Z,21.87
2019-04-16T02:12:47.965Z,21.83
2019-04-16T02:16:56.736Z,23.40
2019-04-16T02:21:09.582Z,23.67
2019-04-16T02:25:19.018Z,25.47
2019-04-16T02:29:29.777Z,23.07
2019-04-16T02:33:35.964Z,23.30
2019-04-16T02:37:44.471Z,19.70
2019-04-16T02:41:56.797Z,17.63
2019-04-16T02:46:03.165Z,16.33
2019-04-16T02:50:13.570Z,20.73
2019-04-16T02:54:23.733Z,18.60
2019-04-16T02:58:36.638Z,17.70
2019-04-16T03:03:01.525Z,17.50
2019-04-16T03:07:09.996Z,21.80
2019-04-16T03:11:18.469Z,21.07
2019-04-16T03:15:33.725Z,18.50
2019-04-16T03:19:43.139Z,16.37
2019-04-16T03:23:51.615Z,15.97
2019-04-16T03:28:00.082Z,15.07
2019-04-16T03:32:12.713Z,18.03
2019-04-16T03:36:18.791Z,16.37
2019-04-16T03:40:27.322Z,21.03
2019-04-16T03:44:37.175Z,18.60
2019-04-16T03:48:46.045Z,18.97
2019-04-16T03:52:54.510Z,20.57
2019-04-16T03:57:02.991Z,17.00
2019-04-16T04:01:14.221Z,16.63
2019-04-16T04:05:21.658Z,25.43
2019-04-16T04:09:30.857Z,16.77
2019-04-16T04:13:39.327Z,24.83
2019-04-16T04:17:48.266Z,17.00
2019-04-16T04:22:00.041Z,23.57
2019-04-16T04:26:10.071Z,19.97
2019-04-16T04:30:20.401Z,18.60
2019-04-16T04:34:28.967Z,16.90
2019-04-16T04:38:38.620Z,22.33
2019-04-16T04:42:47.198Z,22.10
2019-04-16T04:46:55.767Z,19.13
2019-04-16T04:51:08.166Z,21.43
2019-04-16T04:55:14.773Z,19.43
2019-04-16T04:59:23.319Z,23.80
2019-04-16T05:03:47.481Z,20.93
2019-04-16T05:07:59.651Z,20.93
2019-04-16T05:12:08.025Z,18.23
2019-04-16T05:16:16.041Z,17.17
2019-04-16T05:20:24.834Z,19.67
2019-04-16T05:24:33.325Z,20.77
2019-04-16T05:28:45.422Z,24.43
2019-04-16T05:32:52.002Z,26.00
2019-04-16T05:37:00.516Z,21.43
2019-04-16T05:41:13.678Z,20.03
2019-04-16T05:45:19.285Z,21.83
2019-04-16T05:49:28.090Z,27.37
2019-04-16T05:53:40.158Z,21.27
2019-04-16T05:57:50.078Z,17.50
2019-04-16T06:02:00.464Z,23.03
2019-04-16T06:06:08.973Z,25.43
2019-04-16T06:10:19.172Z,21.20
2019-04-16T06:14:35.699Z,24.90
2019-04-16T06:18:52.066Z,22.40
2019-04-16T06:23:04.914Z,21.40
2019-04-16T06:27:26.957Z,23.13
2019-04-16T06:31:49.644Z,21.27
2019-04-16T06:35:59.801Z,30.83
2019-04-16T06:40:31.696Z,28.20
2019-04-16T06:44:39.692Z,22.50
2019-04-16T06:48:53.104Z,20.77
2019-04-16T06:53:03.536Z,22.47
2019-04-16T07:02:02.790Z,22.00
2019-04-16T07:06:12.956Z,24.57
2019-04-16T07:10:25.460Z,19.67
2019-04-16T07:14:36.076Z,26.33
2019-04-16T07:18:43.847Z,21.27
2019-04-16T07:22:53.046Z,27.77
2019-04-16T07:27:02.101Z,20.47
2019-04-16T07:31:32.738Z,24.70
2019-04-16T07:35:51.028Z,25.77
2019-04-16T07:40:10.571Z,23.83
2019-04-16T07:44:20.813Z,20.73
2019-04-16T07:48:47.102Z,21.65
2019-04-16T07:53:14.290Z,25.17
2019-04-16T07:57:22.452Z,24.77
2019-04-16T08:01:31.014Z,22.90
2019-04-16T08:05:41.241Z,20.57
2019-04-16T08:09:49.966Z,18.63
2019-04-16T08:13:58.483Z,21.93
2019-04-16T08:18:07.398Z,31.00
2019-04-16T08:22:16.754Z,22.27
2019-04-16T08:26:25.969Z,23.43
2019-04-16T08:30:37.249Z,22.60
2019-04-16T08:34:44.981Z,19.23
2019-04-16T08:38:53.723Z,17.43
2019-04-16T08:43:02.214Z,24.03
2019-04-16T08:47:12.125Z,21.77
2019-04-16T08:51:30.145Z,18.47
2019-04-16T08:55:31.627Z,22.17
2019-04-16T08:59:42.502Z,22.37
2019-04-16T09:03:50.637Z,26.73
2019-04-16T09:08:12.216Z,26.43
2019-04-16T09:12:11.507Z,17.65
2019-04-16T09:16:20.174Z,20.23
2019-04-16T09:20:30.315Z,21.00
2019-04-16T09:24:43.194Z,20.37
2019-04-16T09:28:56.286Z,19.20
2019-04-16T09:33:18.610Z,25.07
2019-04-16T09:37:37.723Z,35.80
2019-04-16T09:41:47.186Z,21.17
2019-04-16T09:46:09.398Z,27.27
2019-04-16T09:50:11.066Z,23.97
2019-04-16T09:54:17.244Z,21.47
2019-04-16T09:58:26.110Z,20.23
2019-04-16T10:02:35.042Z,24.70
2019-04-16T10:06:43.573Z,19.40
2019-04-16T10:10:52.186Z,25.13
2019-04-16T10:15:00.714Z,20.80
2019-04-16T10:19:09.316Z,23.40
2019-04-16T10:23:19.528Z,24.60
2019-04-16T10:27:32.266Z,20.87
2019-04-16T10:31:40.528Z,26.40
2019-04-16T10:35:49.072Z,19.27
2019-04-16T10:39:59.259Z,24.27
2019-04-16T10:44:24.759Z,25.17
2019-04-16T10:48:37.783Z,23.20
2019-04-16T10:53:04.524Z,25.30
2019-04-16T10:57:15.023Z,23.57
2019-04-16T11:01:30.476Z,19.23
2019-04-16T11:05:57.098Z,25.70
2019-04-16T11:10:07.100Z,24.33
2019-04-16T11:14:15.635Z,29.30
2019-04-16T11:18:24.558Z,24.70
2019-04-16T11:22:33.052Z,18.90
2019-04-16T11:26:44.274Z,20.03
2019-04-16T11:30:53.520Z,24.00
2019-04-16T11:35:02.117Z,26.73
2019-04-16T11:39:11.034Z,20.87
2019-04-16T11:43:19.585Z,16.90
2019-04-16T11:47:28.449Z,21.13
2019-04-16T11:51:38.330Z,22.10
2019-04-16T11:55:47.136Z,19.77
2019-04-16T12:00:06.735Z,21.00
2019-04-16T12:04:10.931Z,22.10
2019-04-16T12:08:22.224Z,20.60
2019-04-16T12:12:49.265Z,25.53
2019-04-16T12:17:08.856Z,20.03
2019-04-16T12:21:18.974Z,13.80
2019-04-16T12:25:35.017Z,16.30
2019-04-16T12:30:01.876Z,18.30
2019-04-16T12:34:30.516Z,14.70
2019-04-16T12:38:40.621Z,13.80
2019-04-16T12:43:14.673Z,13.13
2019-04-16T12:47:24.659Z,14.00
2019-04-16T12:51:40.763Z,11.28
2019-04-16T12:55:52.286Z,12.60
2019-04-16T13:00:08.351Z,14.60
2019-04-16T13:04:30.303Z,15.13
2019-04-16T13:08:46.110Z,12.30
2019-04-16T13:17:18.882Z,11.07
2019-04-16T13:21:29.326Z,11.30
2019-04-16T13:25:56.001Z,10.33
2019-04-16T13:30:07.674Z,10.20
2019-04-16T13:34:18.594Z,9.73
2019-04-16T13:38:30.858Z,12.83
2019-04-16T13:42:39.321Z,11.33
2019-04-16T13:46:47.810Z,9.07
2019-04-16T13:50:57.923Z,11.93
2019-04-16T13:55:10.011Z,12.40
2019-04-16T13:59:20.464Z,9.93
2019-04-16T14:03:28.991Z,11.17
2019-04-16T14:07:37.693Z,12.30
2019-04-16T14:11:51.016Z,9.73
2019-04-16T14:15:56.615Z,14.50
2019-04-16T14:20:08.707Z,15.47
2019-04-16T14:24:22.366Z,15.20
2019-04-16T14:28:34.302Z,18.23
2019-04-16T14:32:41.070Z,16.27
2019-04-16T14:36:49.590Z,12.43
2019-04-16T14:40:58.152Z,13.80
2019-04-16T14:49:39.030Z,13.70
2019-04-16T14:53:51.265Z,16.93
2019-04-16T14:58:06.893Z,19.50
2019-04-16T15:02:33.416Z,10.27
2019-04-16T15:06:52.756Z,20.53
2019-04-16T15:11:19.290Z,10.27
2019-04-16T15:15:29.664Z,12.83
2019-04-16T15:19:39.819Z,10.47
2019-04-16T15:24:06.172Z,9.90
2019-04-16T15:28:28.479Z,10.57
2019-04-16T15:32:44.110Z,11.63
2019-04-16T15:36:55.174Z,12.03
2019-04-16T15:41:17.676Z,12.80
2019-04-16T15:45:33.730Z,11.27
2019-04-16T15:49:55.834Z,11.53
2019-04-16T15:54:21.301Z,12.20
2019-04-16T15:58:32.466Z,13.87
2019-04-16T16:02:45.387Z,11.03
2019-04-16T16:06:55.127Z,10.23
2019-04-16T16:11:21.817Z,11.83
2019-04-16T16:15:30.320Z,10.50
2019-04-16T16:19:38.826Z,14.33
2019-04-16T16:23:47.323Z,11.30
2019-04-16T16:28:15.144Z,12.30
2019-04-16T16:32:23.779Z,15.00
2019-04-16T16:36:32.254Z,14.30
2019-04-16T16:40:40.731Z,12.27
2019-04-16T16:44:50.663Z,18.87
2019-04-16T16:48:59.242Z,12.10
2019-04-16T16:53:14.898Z,10.90
2019-04-16T16:57:37.089Z,15.00
2019-04-16T17:01:49.981Z,13.50
2019-04-16T17:06:00.275Z,13.70
2019-04-16T17:10:08.890Z,13.97
2019-04-16T17:14:17.407Z,13.17
2019-04-16T17:18:25.962Z,12.40
2019-04-16T17:22:34.470Z,12.03
2019-04-16T17:26:43.292Z,21.70
2019-04-16T17:30:51.798Z,11.68
2019-04-16T17:35:00.258Z,10.70
2019-04-16T17:39:10.733Z,9.50
2019-04-16T17:43:21.022Z,11.40
2019-04-16T17:47:47.436Z,14.73
2019-04-16T17:51:57.616Z,11.00
2019-04-16T17:56:32.618Z,9.33
2019-04-16T18:00:42.761Z,19.63
2019-04-16T18:05:05.176Z,11.83
2019-04-16T18:09:21.551Z,9.50
2019-04-16T18:13:34.407Z,9.33
2019-04-16T18:17:47.287Z,8.57
2019-04-16T18:22:03.817Z,9.57
2019-04-16T18:26:23.537Z,10.00
2019-04-16T18:30:34.055Z,6.30
2019-04-16T18:34:44.460Z,8.27
2019-04-16T18:39:07.298Z,7.23
2019-04-16T18:43:17.442Z,12.87
2019-04-16T18:47:39.794Z,7.60
2019-04-16T18:51:48.533Z,6.40
2019-04-16T18:55:57.014Z,9.10
2019-04-16T19:00:08.675Z,8.57
2019-04-16T19:04:17.154Z,5.20
2019-04-16T19:08:40.468Z,5.20
2019-04-16T19:12:35.769Z,5.80
2019-04-16T19:16:44.247Z,7.10
2019-04-16T19:20:53.085Z,5.07
2019-04-16T19:25:01.996Z,4.80
2019-04-16T19:29:14.430Z,4.97
2019-04-16T19:33:20.665Z,4.30
2019-04-16T19:37:29.758Z,4.80
2019-04-16T19:41:41.283Z,5.53
2019-04-16T19:45:49.548Z,5.90
2019-04-16T19:49:58.035Z,4.60
2019-04-16T19:54:06.509Z,4.47
2019-04-16T19:58:15.019Z,6.43
2019-04-16T20:02:23.474Z,4.50
2019-04-16T20:06:31.975Z,3.73
2019-04-16T20:10:40.424Z,6.20
2019-04-16T20:14:49.194Z,5.23
2019-04-16T20:18:57.671Z,4.83
2019-04-16T20:23:06.123Z,4.27
2019-04-16T20:27:14.945Z,4.10
2019-04-16T20:31:23.434Z,4.03
2019-04-16T20:35:31.923Z,4.10
2019-04-16T20:39:40.831Z,4.40
2019-04-16T20:43:49.542Z,4.37
2019-04-16T20:47:58.066Z,3.90
2019-04-16T20:52:06.728Z,7.33
2019-04-16T20:56:20.018Z,4.13
2019-04-16T21:00:33.045Z,4.57
2019-04-16T21:04:41.534Z,5.10
2019-04-16T21:08:49.974Z,4.70
2019-04-16T21:12:58.432Z,6.43
2019-04-16T21:17:07.717Z,5.03
2019-04-16T21:21:16.680Z,3.30
2019-04-16T21:25:26.870Z,5.50
2019-04-16T21:29:36.764Z,3.90
2019-04-16T21:33:49.251Z,4.03
2019-04-16T21:37:58.977Z,3.93
2019-04-16T21:42:07.443Z,4.73
2019-04-16T21:46:20.117Z,9.37
2019-04-16T21:50:26.122Z,5.60
2019-04-16T21:54:34.664Z,4.77
2019-04-16T21:58:43.117Z,5.20
2019-04-16T22:02:52.112Z,6.20
2019-04-16T22:07:00.943Z,3.80
2019-04-16T22:11:11.754Z,4.20
2019-04-16T22:15:25.198Z,7.70
2019-04-16T22:19:30.057Z,8.33
2019-04-16T22:23:38.545Z,5.00
2019-04-16T22:27:47.016Z,5.47
2019-04-16T22:31:57.001Z,5.60
2019-04-16T22:36:05.664Z,4.93
2019-04-16T22:40:16.087Z,8.50
2019-04-16T22:44:42.527Z,9.80
2019-04-16T22:48:58.362Z,5.27
2019-04-16T22:53:06.948Z,7.27
2019-04-16T22:57:16.192Z,9.20
2019-04-16T23:01:26.299Z,5.23
2019-04-16T23:05:35.124Z,5.20
2019-04-16T23:09:45.823Z,4.90
2019-04-16T23:14:13.450Z,5.20
2019-04-16T23:18:21.949Z,4.57
2019-04-16T23:22:30.487Z,5.20
2019-04-16T23:26:38.963Z,5.77
2019-04-16T23:30:47.969Z,7.17
2019-04-16T23:34:57.657Z,6.00
2019-04-16T23:39:07.893Z,5.93
2019-04-16T23:43:36.670Z,8.08
2019-04-16T23:52:05.212Z,6.10
2019-04-16T23:56:24.282Z,7.23
